Time;durP1;ratioP1;P1;durP2;ratioP2;P2;SDS_P1;SDS_P2;PMS_P1;PMS_P2;Temp;Humidity;BMP_temperature;BMP_pressure;BME280_temperature;BME280_humidity;BME280_pressure;Samples;Min_cycle;Max_cycle;Signal;HPM_P1;HPM_P2
2022/01/22 00:02:58;;;;;;;19.42;6.30;;;;;;;4.99;87.94;103181.63;10508491;28;20115;-81
2022/01/22 00:08:00;;;;;;;16.83;5.72;;;;;;;5.00;87.53;103178.31;10514010;28;20109;-83
2022/01/22 00:18:03;;;;;;;24.92;6.70;;;;;;;5.08;88.28;103187.53;10534945;28;20175;-83
2022/01/22 00:23:07;;;;;;;19.42;6.35;;;;;;;4.93;88.23;103173.44;10493516;28;20118;-83
2022/01/22 00:28:09;;;;;;;21.15;6.05;;;;;;;4.93;88.22;103168.31;10518054;28;20048;-82
2022/01/22 00:33:11;;;;;;;23.17;6.88;;;;;;;4.91;88.83;103164.75;10501451;28;20126;-81
2022/01/22 00:38:14;;;;;;;21.95;6.60;;;;;;;4.90;88.69;103157.84;10500950;28;20488;-83
2022/01/22 00:43:16;;;;;;;19.38;7.10;;;;;;;4.86;88.82;103143.03;10500187;28;20086;-82
2022/01/22 00:48:18;;;;;;;17.55;6.40;;;;;;;5.01;88.35;103152.00;10510969;28;20079;-82
2022/01/22 00:53:20;;;;;;;26.35;6.55;;;;;;;4.94;88.97;103157.34;10535674;28;20040;-83
2022/01/22 00:58:21;;;;;;;24.67;6.45;;;;;;;5.01;88.40;103157.09;10514584;28;20044;-83
2022/01/22 01:03:23;;;;;;;37.88;7.72;;;;;;;4.90;88.82;103152.72;10508126;28;20081;-82
2022/01/22 01:08:27;;;;;;;18.30;6.55;;;;;;;5.04;88.50;103151.34;10501197;28;20071;-82
2022/01/22 01:13:32;;;;;;;24.95;6.78;;;;;;;4.93;88.36;103153.00;10505451;28;20438;-82
2022/01/22 01:34:40;;;;;;;17.65;6.43;;;;;;;5.05;88.53;103163.38;10488036;28;20040;-81
2022/01/22 01:40:01;;;;;;;20.67;5.95;;;;;;;5.07;88.56;103167.84;10475532;28;20052;-84
2022/01/22 01:45:06;;;;;;;23.70;6.50;;;;;;;4.98;88.03;103156.84;10483231;28;20044;-84
2022/01/22 01:50:17;;;;;;;21.60;6.07;;;;;;;5.02;88.61;103161.47;10467073;28;20076;-82
2022/01/22 01:55:33;;;;;;;15.63;6.10;;;;;;;5.05;88.62;103158.25;10471924;28;20043;-82
2022/01/22 02:00:38;;;;;;;18.27;5.82;;;;;;;5.05;88.60;103148.91;10460221;28;20037;-82
2022/01/22 02:05:41;;;;;;;21.40;5.70;;;;;;;5.11;88.48;103157.88;10490617;28;20048;-83
2022/01/22 02:10:52;;;;;;;18.08;5.57;;;;;;;5.14;88.39;103165.81;10508276;28;20110;-83
2022/01/22 02:27:38;;;;;;;16.80;5.60;;;;;;;5.20;88.18;103164.66;10497787;28;20048;-83
2022/01/22 02:38:12;;;;;;;25.10;6.03;;;;;;;5.35;87.38;103170.16;10491252;28;20075;-83
2022/01/22 02:43:15;;;;;;;24.95;6.00;;;;;;;5.27;88.29;103160.94;10521749;28;20045;-83
2022/01/22 02:48:17;;;;;;;25.30;5.60;;;;;;;5.31;88.32;103162.09;10501843;28;20047;-83
2022/01/22 02:53:19;;;;;;;22.48;4.72;;;;;;;5.30;88.09;103166.34;10509244;28;20042;-83
2022/01/22 02:58:20;;;;;;;20.42;4.57;;;;;;;5.34;88.40;103157.25;10515234;28;20036;-82
2022/01/22 03:03:22;;;;;;;21.10;5.20;;;;;;;5.41;87.53;103164.66;10490167;28;20036;-83
2022/01/22 03:08:28;;;;;;;20.33;5.72;;;;;;;5.39;87.83;103163.63;10483565;28;20086;-82
2022/01/22 03:14:20;;;;;;;15.18;4.35;;;;;;;5.37;87.39;103172.84;10536257;28;20124;-84
2022/01/22 03:29:36;;;;;;;19.63;4.88;;;;;;;5.45;88.17;103173.50;10511134;28;20040;-83
2022/01/22 03:34:54;;;;;;;22.27;4.57;;;;;;;5.48;88.62;103166.97;10490339;28;20044;-83
2022/01/22 03:39:56;;;;;;;16.85;4.30;;;;;;;5.45;88.36;103173.50;10492159;28;20135;-83
2022/01/22 03:44:58;;;;;;;14.50;4.40;;;;;;;5.58;88.20;103183.97;10522872;28;20040;-83
2022/01/22 03:50:04;;;;;;;18.67;4.30;;;;;;;5.50;88.40;103193.56;10484299;28;20114;-83
2022/01/22 03:55:10;;;;;;;19.92;4.72;;;;;;;5.59;88.76;103190.88;10524445;28;20052;-83
2022/01/22 04:00:43;;;;;;;16.70;4.40;;;;;;;5.56;88.36;103185.50;10498868;28;20044;-82
2022/01/22 04:06:30;;;;;;;19.63;4.43;;;;;;;5.62;88.57;103180.00;10489765;28;20515;-83
2022/01/22 04:11:12;;;;;;;20.08;4.43;;;;;;;5.60;88.80;103187.56;10489937;28;20045;-82
2022/01/22 04:16:14;;;;;;;16.20;4.43;;;;;;;5.59;88.83;103185.75;10492487;28;20139;-83
2022/01/22 04:26:54;;;;;;;15.18;3.78;;;;;;;5.66;88.56;103190.63;10511972;28;20439;-83
2022/01/22 04:31:55;;;;;;;16.67;3.70;;;;;;;5.68;88.38;103189.09;10487919;28;20099;-83
2022/01/22 04:36:58;;;;;;;22.77;4.32;;;;;;;5.64;88.23;103184.47;10522195;28;20143;-82
2022/01/22 04:42:00;;;;;;;17.63;3.90;;;;;;;5.71;87.74;103184.22;10511484;28;20047;-83
2022/01/22 04:57:29;;;;;;;13.82;3.50;;;;;;;5.65;87.59;103183.69;10553549;28;20517;-82
2022/01/22 05:02:31;;;;;;;11.85;3.50;;;;;;;5.57;87.99;103187.28;10519666;28;20035;-81
2022/01/22 05:07:39;;;;;;;18.88;3.75;;;;;;;5.56;88.25;103186.41;10515708;28;20155;-83
2022/01/22 05:12:53;;;;;;;25.83;4.25;;;;;;;5.59;87.12;103182.28;10519995;28;20398;-81
2022/01/22 05:17:57;;;;;;;12.45;3.22;;;;;;;5.62;87.72;103188.56;10519075;28;20063;-83
2022/01/22 05:23:07;;;;;;;11.57;3.58;;;;;;;5.65;87.88;103181.16;10536071;28;20051;-83
2022/01/22 05:39:13;;;;;;;16.17;3.47;;;;;;;5.52;86.90;103178.34;10505284;28;20582;-82
2022/01/22 05:44:15;;;;;;;12.38;3.65;;;;;;;5.47;87.21;103189.88;10518244;28;20499;-83
2022/01/22 05:49:20;;;;;;;11.23;3.45;;;;;;;5.43;87.15;103198.03;10534868;28;20074;-83
2022/01/22 05:59:36;;;;;;;18.17;3.78;;;;;;;5.53;87.87;103201.47;10536115;28;20441;-83
2022/01/22 06:04:41;;;;;;;15.63;4.03;;;;;;;5.52;88.03;103209.03;10495219;28;20056;-83
2022/01/22 06:10:26;;;;;;;13.10;3.80;;;;;;;5.57;88.06;103207.75;10516220;28;20044;-83
2022/01/22 06:15:15;;;;;;;16.23;4.43;;;;;;;5.66;88.21;103203.41;10532330;28;20046;-83
2022/01/22 06:20:37;;;;;;;13.23;4.22;;;;;;;5.64;87.91;103206.59;10524151;28;20093;-82
2022/01/22 06:25:41;;;;;;;15.18;4.63;;;;;;;5.60;88.20;103212.22;10527110;28;20048;-82
2022/01/22 06:30:44;;;;;;;12.32;4.22;;;;;;;5.70;88.26;103214.78;10542507;28;20113;-83
2022/01/22 06:35:47;;;;;;;12.38;3.97;;;;;;;5.75;87.63;103218.59;10544086;28;20044;-83
2022/01/22 06:46:27;;;;;;;19.33;4.53;;;;;;;5.74;87.90;103236.41;10502625;28;20052;-83
2022/01/22 06:51:50;;;;;;;15.68;4.35;;;;;;;5.82;86.80;103245.59;10500084;28;20095;-83
2022/01/22 06:56:52;;;;;;;8.90;3.63;;;;;;;5.88;86.79;103241.00;10549275;28;20059;-83
2022/01/22 07:01:56;;;;;;;16.20;4.60;;;;;;;5.86;87.45;103250.19;10524480;28;20391;-83
2022/01/22 07:07:00;;;;;;;14.23;4.00;;;;;;;5.84;87.21;103238.97;10484236;28;20131;-83
2022/01/22 07:12:11;;;;;;;16.65;3.47;;;;;;;5.89;86.45;103253.03;10498883;28;20135;-83
2022/01/22 07:17:13;;;;;;;9.77;3.58;;;;;;;5.83;87.13;103268.75;10503022;28;20335;-83
2022/01/22 07:27:57;;;;;;;9.02;3.75;;;;;;;5.71;87.79;103268.63;10489770;28;20049;-85
2022/01/22 07:33:00;;;;;;;11.23;3.17;;;;;;;5.64;88.18;103265.44;10484431;28;20040;-84
2022/01/22 07:38:02;;;;;;;9.18;3.72;;;;;;;5.66;88.47;103277.56;10492550;28;20048;-86
2022/01/22 07:43:04;;;;;;;9.93;3.15;;;;;;;5.69;88.86;103265.06;10503520;28;20041;-85
2022/01/22 07:48:24;;;;;;;10.73;3.58;;;;;;;5.73;88.36;103271.31;10542238;28;20052;-85
2022/01/22 07:53:45;;;;;;;10.52;3.78;;;;;;;5.78;88.86;103264.00;10541431;28;20498;-85
2022/01/22 07:58:58;;;;;;;13.60;4.18;;;;;;;5.91;88.38;103260.81;10523112;28;20051;-86
2022/01/22 08:04:05;;;;;;;11.57;4.05;;;;;;;5.91;88.04;103266.84;10525790;28;20049;-84
2022/01/22 08:09:26;;;;;;;10.20;3.95;;;;;;;5.97;88.56;103275.03;10525744;28;20074;-84
2022/01/22 08:14:36;;;;;;;11.77;3.73;;;;;;;6.03;87.34;103273.00;10528829;28;20048;-84
2022/01/22 08:19:43;;;;;;;10.65;3.10;;;;;;;6.13;87.46;103278.88;10488539;28;20399;-84
2022/01/22 08:25:04;;;;;;;11.05;3.30;;;;;;;6.21;87.47;103285.53;10496932;28;20040;-84
2022/01/22 08:30:09;;;;;;;9.18;3.53;;;;;;;6.18;87.55;103298.06;10463721;28;20083;-84
2022/01/22 08:40:32;;;;;;;7.78;2.88;;;;;;;6.18;87.84;103298.06;10513097;28;20083;-83
2022/01/22 08:45:36;;;;;;;10.45;3.45;;;;;;;6.59;86.49;103297.97;10475489;28;20040;-85
2022/01/22 08:50:38;;;;;;;7.35;2.85;;;;;;;6.64;85.78;103299.25;10473830;28;20383;-85
2022/01/22 08:55:40;;;;;;;6.28;3.05;;;;;;;6.64;85.73;103304.38;10475743;28;20052;-84
2022/01/22 09:00:45;;;;;;;9.90;3.13;;;;;;;6.77;85.69;103302.78;10470301;28;20090;-84
2022/01/22 09:05:55;;;;;;;6.75;2.67;;;;;;;6.79;85.65;103301.25;10475845;28;20392;-85
2022/01/22 09:11:16;;;;;;;5.45;2.55;;;;;;;6.79;85.68;103301.25;10476655;28;20114;-85
2022/01/22 09:16:37;;;;;;;11.15;2.90;;;;;;;6.67;86.25;103313.97;10468324;28;20037;-85
2022/01/22 09:21:46;;;;;;;7.30;3.10;;;;;;;6.78;86.51;103314.84;10480048;28;20056;-84
2022/01/22 09:26:51;;;;;;;10.40;3.63;;;;;;;6.67;86.65;103312.28;10501802;28;20040;-82
2022/01/22 09:31:53;;;;;;;8.43;3.47;;;;;;;6.74;86.54;103310.25;10548183;28;20075;-82
2022/01/22 09:37:14;;;;;;;9.52;3.47;;;;;;;6.54;86.55;103324.88;10511254;28;20480;-82
2022/01/22 09:42:27;;;;;;;11.07;3.45;;;;;;;6.54;86.48;103327.44;10500641;28;20495;-82
2022/01/22 09:47:48;;;;;;;9.43;3.15;;;;;;;6.65;86.03;103324.13;10495986;28;20491;-83
2022/01/22 09:53:11;;;;;;;9.07;3.22;;;;;;;6.52;86.27;103336.66;10483538;28;20054;-84
2022/01/22 09:58:26;;;;;;;15.57;3.28;;;;;;;6.75;85.59;103340.19;10482445;28;20519;-84
2022/01/22 10:03:47;;;;;;;9.25;3.55;;;;;;;6.67;85.88;103358.41;10492569;28;20041;-84
2022/01/22 10:09:12;;;;;;;10.15;3.40;;;;;;;6.76;85.48;103357.38;10497632;28;20131;-84
2022/01/22 10:14:34;;;;;;;10.63;3.47;;;;;;;6.83;86.03;103359.66;10521011;28;20051;-84
2022/01/22 10:19:35;;;;;;;7.70;3.10;;;;;;;6.89;85.80;103355.00;10522799;28;20418;-84
2022/01/22 10:24:42;;;;;;;12.63;3.40;;;;;;;6.91;85.54;103358.59;10535643;28;20052;-85
2022/01/22 10:29:53;;;;;;;14.38;3.45;;;;;;;6.92;85.62;103362.09;10517632;28;20094;-86
2022/01/22 10:35:10;;;;;;;12.07;4.63;;;;;;;6.85;86.18;103355.56;10493069;28;20044;-85
2022/01/22 10:40:54;;;;;;;15.13;3.65;;;;;;;6.45;86.69;103354.84;10501876;28;20052;-84
2022/01/22 10:46:00;;;;;;;13.48;3.53;;;;;;;6.73;86.39;103350.34;10518401;28;20519;-84
2022/01/22 10:51:05;;;;;;;8.07;2.90;;;;;;;6.82;86.27;103357.84;10497058;28;20485;-85
2022/01/22 10:56:08;;;;;;;10.38;2.90;;;;;;;6.74;85.77;103358.94;10506301;28;20095;-83
2022/01/22 11:01:11;;;;;;;8.25;2.88;;;;;;;6.49;86.18;103357.81;10486697;28;20103;-84
2022/01/22 11:06:28;;;;;;;12.48;3.50;;;;;;;6.71;86.20;103368.91;10471846;28;20152;-84
2022/01/22 11:11:37;;;;;;;14.40;3.33;;;;;;;6.80;85.07;103359.44;10528620;28;20139;-84
2022/01/22 11:16:42;;;;;;;12.15;3.13;;;;;;;6.89;85.34;103360.13;10484149;28;20056;-85
2022/01/22 11:21:52;;;;;;;11.90;3.17;;;;;;;6.83;85.24;103344.28;10511626;28;20056;-84
2022/01/22 11:26:59;;;;;;;11.10;3.50;;;;;;;6.74;85.22;103356.38;10480675;28;20053;-85
2022/01/22 11:32:04;;;;;;;14.02;3.50;;;;;;;6.69;85.93;103360.22;10513544;28;20040;-85
2022/01/22 11:37:16;;;;;;;12.77;3.58;;;;;;;6.82;85.10;103357.84;10499879;28;20076;-85
2022/01/22 11:42:24;;;;;;;11.90;4.00;;;;;;;6.98;84.88;103358.31;10474751;28;20068;-85
2022/01/22 11:47:26;;;;;;;9.52;3.83;;;;;;;6.77;85.68;103354.94;10480010;28;20071;-85
2022/01/22 11:52:30;;;;;;;12.45;4.68;;;;;;;6.92;85.46;103352.72;10519941;28;20593;-86
2022/01/22 11:57:32;;;;;;;11.45;4.90;;;;;;;6.85;85.65;103347.88;10523194;28;20043;-83
2022/01/22 12:02:37;;;;;;;13.43;4.97;;;;;;;6.98;85.56;103340.38;10496280;28;20075;-85
2022/01/22 12:07:57;;;;;;;12.15;4.32;;;;;;;6.93;86.02;103351.94;10505103;28;20138;-86
2022/01/22 12:19:00;;;;;;;13.63;4.30;;;;;;;6.87;86.13;103348.91;10519332;28;20110;-86
2022/01/22 12:24:04;;;;;;;13.75;4.72;;;;;;;7.03;85.83;103352.69;10496804;28;20475;-85
2022/01/22 12:29:29;;;;;;;12.20;4.57;;;;;;;6.97;85.26;103353.97;10474030;28;20055;-84
2022/01/22 12:34:57;;;;;;;12.38;4.78;;;;;;;6.99;85.25;103349.88;10530013;28;20513;-86
2022/01/22 12:40:06;;;;;;;8.13;4.18;;;;;;;7.06;85.27;103345.22;10492769;28;20093;-86
2022/01/22 12:45:11;;;;;;;10.95;4.10;;;;;;;6.90;84.28;103351.69;10510644;28;20060;-85
2022/01/22 12:50:13;;;;;;;16.77;4.10;;;;;;;6.99;83.89;103352.44;10491483;28;20100;-86
2022/01/22 12:55:37;;;;;;;10.23;4.30;;;;;;;7.14;83.24;103357.00;10522061;28;20113;-85
2022/01/22 13:00:38;;;;;;;19.95;4.50;;;;;;;7.04;83.11;103354.44;10487783;28;20107;-84
2022/01/22 13:05:45;;;;;;;11.90;3.92;;;;;;;6.97;83.48;103360.78;10508132;28;20493;-85
2022/01/22 13:11:18;;;;;;;11.25;3.92;;;;;;;6.98;82.56;103350.63;10489380;28;20401;-84
2022/01/22 13:16:19;;;;;;;8.07;3.67;;;;;;;6.95;82.26;103355.53;10509661;28;20048;-85
2022/01/22 13:21:23;;;;;;;9.40;3.70;;;;;;;7.08;82.46;103351.38;10510476;28;20439;-85
2022/01/22 13:26:38;;;;;;;10.70;3.50;;;;;;;7.02;81.75;103345.78;10518123;28;20040;-85
2022/01/22 13:31:39;;;;;;;10.27;4.05;;;;;;;7.03;82.03;103345.00;10484740;28;20074;-84
2022/01/22 13:36:55;;;;;;;11.63;4.43;;;;;;;7.11;82.47;103349.06;10507653;28;20036;-85
2022/01/22 13:53:14;;;;;;;12.93;3.90;;;;;;;7.05;82.41;103346.91;10411971;28;20379;-83
2022/01/22 13:58:18;;;;;;;10.90;3.75;;;;;;;6.98;83.02;103353.19;10517114;28;20329;-84
2022/01/22 14:08:34;;;;;;;10.15;4.55;;;;;;;6.91;83.29;103338.09;10517008;28;20476;-84
2022/01/22 14:13:39;;;;;;;14.63;4.95;;;;;;;6.99;83.63;103342.19;10516082;28;20499;-84
2022/01/22 14:18:43;;;;;;;10.88;4.72;;;;;;;7.02;83.41;103335.50;10496782;28;20094;-84
2022/01/22 14:23:47;;;;;;;13.07;5.22;;;;;;;6.99;83.53;103337.06;10476935;28;20255;-84
2022/01/22 14:28:51;;;;;;;15.82;5.50;;;;;;;7.04;83.49;103329.72;10476737;28;20098;-84
2022/01/22 14:34:04;;;;;;;16.45;6.20;;;;;;;7.03;83.45;103338.19;10474902;28;20079;-84
2022/01/22 14:44:00;;;;;;;12.30;5.28;;;;;;;7.10;83.46;103339.59;10482743;28;20136;-84
2022/01/22 14:44:39;;;;;;;16.23;6.07;;;;;;;7.10;83.56;103334.47;10477881;28;20076;-84
2022/01/22 14:49:45;;;;;;;12.15;6.10;;;;;;;7.14;82.95;103333.91;10476256;28;20098;-84
2022/01/22 14:54:49;;;;;;;12.73;6.35;;;;;;;7.09;83.22;103332.66;10482962;28;20479;-83
2022/01/22 14:59:56;;;;;;;12.75;5.60;;;;;;;7.20;82.85;103336.97;10516468;28;20044;-83
2022/01/22 15:04:57;;;;;;;11.35;5.25;;;;;;;7.09;82.66;103328.41;10484253;28;20132;-84
2022/01/22 15:09:59;;;;;;;15.40;5.03;;;;;;;7.12;82.97;103323.56;10496400;28;20122;-84
2022/01/22 15:15:01;;;;;;;18.65;5.60;;;;;;;7.23;82.13;103326.03;10476093;28;20053;-84
2022/01/22 15:20:02;;;;;;;12.27;5.07;;;;;;;7.11;82.75;103332.00;10479992;28;20048;-85
2022/01/22 15:25:04;;;;;;;9.63;5.57;;;;;;;7.21;82.24;103333.63;10514225;28;20064;-85
2022/01/22 15:30:18;;;;;;;17.95;5.70;;;;;;;7.34;82.16;103334.56;10495944;28;20071;-84
2022/01/22 15:35:21;;;;;;;11.05;5.22;;;;;;;7.25;81.86;103330.53;10479503;28;20041;-84
2022/01/22 15:40:26;;;;;;;9.93;5.78;;;;;;;6.99;83.01;103331.03;10477372;28;21429;-84
2022/01/22 15:45:33;;;;;;;14.90;6.18;;;;;;;7.09;82.60;103337.78;10505688;28;20040;-84
2022/01/22 15:50:37;;;;;;;12.88;5.88;;;;;;;7.10;82.60;103339.59;10492284;28;20138;-84
2022/01/22 15:55:49;;;;;;;13.38;6.10;;;;;;;7.21;82.16;103336.19;10488487;28;20072;-84
2022/01/22 16:00:51;;;;;;;11.48;5.88;;;;;;;6.98;82.49;103355.75;10489048;28;20499;-84
2022/01/22 16:05:57;;;;;;;12.73;5.95;;;;;;;7.13;81.99;103338.16;10498878;28;20039;-84
2022/01/22 16:10:59;;;;;;;14.10;6.15;;;;;;;6.96;82.88;103341.91;10463692;28;20076;-84
2022/01/22 16:16:03;;;;;;;12.65;6.05;;;;;;;6.91;82.67;103345.78;10467538;28;20066;-85
2022/01/22 16:21:04;;;;;;;13.48;6.30;;;;;;;6.96;82.56;103357.31;10470941;28;20049;-85
2022/01/22 16:26:06;;;;;;;13.10;6.28;;;;;;;6.91;82.77;103358.59;10463227;28;20045;-85
2022/01/22 16:31:08;;;;;;;11.15;6.10;;;;;;;6.94;82.90;103363.09;10500302;28;20080;-85
2022/01/22 16:36:10;;;;;;;14.93;6.40;;;;;;;6.62;84.25;103369.06;10480846;28;20055;-85
2022/01/22 16:41:13;;;;;;;17.23;7.05;;;;;;;6.46;85.11;103372.03;10499172;28;20041;-84
2022/01/22 16:56:43;;;;;;;12.95;6.18;;;;;;;7.07;82.12;103380.34;10481410;28;20036;-83
2022/01/22 17:02:05;;;;;;;12.10;6.13;;;;;;;7.09;82.29;103383.94;10510855;28;20134;-83
2022/01/22 17:07:12;;;;;;;11.90;6.25;;;;;;;7.02;81.83;103387.66;10480247;28;20407;-84
2022/01/22 17:17:34;;;;;;;17.30;7.75;;;;;;;6.97;82.14;103394.97;10498344;28;20040;-84
2022/01/22 17:22:39;;;;;;;21.58;8.05;;;;;;;6.96;82.29;103398.31;10518918;28;20487;-85
2022/01/22 17:27:40;;;;;;;18.23;7.65;;;;;;;6.80;82.39;103395.31;10501424;28;20129;-84
2022/01/22 17:32:44;;;;;;;16.23;8.05;;;;;;;6.78;82.86;103397.72;10533858;28;20072;-84
2022/01/22 17:38:09;;;;;;;17.52;8.55;;;;;;;6.82;82.79;103393.72;10524131;28;20101;-84
2022/01/22 17:43:13;;;;;;;16.77;8.68;;;;;;;6.71;82.78;103392.84;10507901;28;20063;-84
2022/01/22 17:48:15;;;;;;;19.75;8.23;;;;;;;6.70;83.27;103395.31;10515915;28;20055;-85
2022/01/22 17:53:17;;;;;;;21.88;7.82;;;;;;;6.53;83.25;103383.69;10513944;28;20483;-85
2022/01/22 17:58:19;;;;;;;14.40;7.68;;;;;;;6.61;83.14;103373.28;10517010;28;20051;-84
2022/01/22 18:03:44;;;;;;;14.48;7.07;;;;;;;6.55;83.19;103380.47;10527239;28;20473;-85
2022/01/22 18:08:47;;;;;;;22.02;7.72;;;;;;;6.59;83.06;103387.63;10513217;28;20130;-84
2022/01/22 18:13:49;;;;;;;13.00;6.80;;;;;;;6.52;82.45;103387.88;10492413;28;20040;-85
2022/01/22 18:18:50;;;;;;;18.52;7.10;;;;;;;6.53;82.42;103389.69;10516174;28;20089;-84
2022/01/22 18:24:02;;;;;;;14.15;6.05;;;;;;;6.61;82.66;103378.41;10514950;28;20055;-84
2022/01/22 18:29:06;;;;;;;10.35;5.75;;;;;;;6.61;82.09;103375.84;10507047;28;20055;-84
2022/01/22 18:34:09;;;;;;;14.48;6.28;;;;;;;6.62;81.99;103385.31;10496065;28;20127;-84
2022/01/22 18:39:12;;;;;;;13.27;5.63;;;;;;;6.55;81.91;103393.28;10510470;28;20628;-85
2022/01/22 18:44:15;;;;;;;12.80;6.20;;;;;;;6.55;82.72;103393.28;10532921;28;20044;-84
2022/01/22 18:49:21;;;;;;;11.52;6.32;;;;;;;6.52;82.49;103393.00;10518129;28;20267;-84
2022/01/22 18:54:22;;;;;;;11.00;5.93;;;;;;;6.52;82.48;103405.81;10498359;28;20499;-84
2022/01/22 18:59:24;;;;;;;11.60;6.30;;;;;;;6.50;82.59;103404.81;10451062;28;20559;-84
2022/01/22 19:04:25;;;;;;;11.68;7.20;;;;;;;6.43;83.19;103402.53;10483528;28;20122;-85
2022/01/22 19:09:27;;;;;;;16.05;7.32;;;;;;;6.43;83.11;103415.31;10479853;28;20036;-85
2022/01/22 19:14:29;;;;;;;11.95;7.43;;;;;;;6.41;82.65;103421.97;10477808;28;20495;-85
2022/01/22 19:19:31;;;;;;;17.83;7.72;;;;;;;6.48;82.71;103422.59;10467562;28;20049;-85
2022/01/22 19:24:54;;;;;;;23.95;8.68;;;;;;;6.43;82.96;103423.00;10470088;28;20477;-85
2022/01/22 19:29:55;;;;;;;15.32;9.25;;;;;;;6.44;82.69;103424.81;10502320;28;20053;-84
2022/01/22 19:34:58;;;;;;;20.30;9.50;;;;;;;6.51;82.86;103407.50;10493092;28;20061;-85
2022/01/22 19:40:00;;;;;;;17.13;9.85;;;;;;;6.53;82.87;103399.94;10497245;28;20040;-85
2022/01/22 19:45:04;;;;;;;19.05;10.35;;;;;;;6.49;83.05;103396.22;10489906;28;20055;-85
2022/01/22 19:50:06;;;;;;;19.05;10.10;;;;;;;6.46;83.44;103408.78;10472532;28;20056;-84
2022/01/22 19:55:08;;;;;;;18.10;9.98;;;;;;;6.41;82.92;103409.16;10478402;28;20109;-85
2022/01/22 20:00:10;;;;;;;22.40;10.75;;;;;;;6.48;82.87;103414.03;10471037;28;20131;-84
2022/01/22 20:05:12;;;;;;;24.65;11.50;;;;;;;6.45;82.99;103406.06;10479058;28;20403;-84
2022/01/22 20:10:18;;;;;;;26.52;10.90;;;;;;;6.43;83.42;103402.53;10476727;28;20482;-84
2022/01/22 20:15:20;;;;;;;17.95;10.48;;;;;;;6.55;82.90;103397.50;10463326;28;20455;-84
2022/01/22 20:20:25;;;;;;;23.10;11.85;;;;;;;6.19;83.62;103407.38;10477300;28;20460;-84
2022/01/22 20:25:49;;;;;;;20.10;11.50;;;;;;;6.13;84.53;103424.78;10504526;28;20057;-84
2022/01/22 20:30:53;;;;;;;25.48;12.40;;;;;;;6.16;83.93;103430.13;10474461;28;20036;-84
2022/01/22 20:35:55;;;;;;;20.42;11.30;;;;;;;6.40;84.04;103420.16;10481585;28;20060;-84
2022/01/22 20:40:56;;;;;;;17.38;10.57;;;;;;;6.37;83.19;103414.81;10496669;28;20492;-84
2022/01/22 20:45:58;;;;;;;24.48;10.70;;;;;;;6.44;83.26;103420.56;10517117;28;20045;-84
2022/01/22 20:51:01;;;;;;;19.33;10.40;;;;;;;6.30;83.76;103424.50;10487629;28;20047;-84
2022/01/22 20:56:03;;;;;;;17.45;9.13;;;;;;;6.33;83.81;103424.78;10472226;28;20123;-85
2022/01/22 21:01:06;;;;;;;18.20;10.25;;;;;;;6.32;83.03;103438.34;10485980;28;20091;-84
2022/01/22 21:06:09;;;;;;;21.80;9.93;;;;;;;6.40;83.33;103438.09;10493147;28;20052;-84
2022/01/22 21:11:14;;;;;;;18.30;9.90;;;;;;;6.22;83.47;103428.09;10506696;28;20322;-84
2022/01/22 21:16:17;;;;;;;16.80;8.32;;;;;;;6.14;84.31;103418.91;10490741;28;20048;-84
2022/01/22 21:21:19;;;;;;;18.08;8.95;;;;;;;5.96;85.18;103433.53;10495426;28;20055;-83
2022/01/22 21:26:20;;;;;;;18.65;9.18;;;;;;;6.30;84.25;103427.06;10497109;28;20048;-83
2022/01/22 21:31:22;;;;;;;14.60;7.90;;;;;;;5.97;86.10;103431.13;10504251;28;20474;-84
2022/01/22 21:36:44;;;;;;;16.20;8.43;;;;;;;6.18;85.24;103420.94;10504323;28;20553;-84
2022/01/22 21:42:06;;;;;;;19.80;9.80;;;;;;;5.88;86.12;103430.31;10486830;28;20050;-84
2022/01/22 21:47:08;;;;;;;18.08;9.50;;;;;;;6.15;85.14;103420.66;10473820;28;20060;-83
2022/01/22 21:52:10;;;;;;;17.63;9.02;;;;;;;5.94;85.91;103430.84;10474800;28;20091;-84
2022/01/22 21:57:12;;;;;;;16.58;9.27;;;;;;;5.99;86.47;103434.75;10469182;28;20040;-83
2022/01/22 22:02:14;;;;;;;15.20;8.77;;;;;;;6.16;86.22;103433.63;10484543;28;20415;-83
2022/01/22 22:07:26;;;;;;;17.98;9.52;;;;;;;5.91;86.26;103445.03;10489357;28;20400;-83
2022/01/22 22:12:31;;;;;;;18.83;9.35;;;;;;;6.00;85.99;103439.06;10493979;28;20048;-84
2022/01/22 22:17:32;;;;;;;18.95;10.27;;;;;;;5.86;86.64;103444.63;10511092;28;20079;-83
2022/01/22 22:22:39;;;;;;;20.05;10.38;;;;;;;6.04;85.72;103447.91;10503462;28;20045;-84
2022/01/22 22:27:42;;;;;;;18.83;10.43;;;;;;;6.08;85.58;103459.31;10480724;28;20071;-83
2022/01/22 22:32:49;;;;;;;26.48;11.48;;;;;;;6.04;86.08;103453.03;10495091;28;20054;-84
2022/01/22 22:37:51;;;;;;;18.95;9.57;;;;;;;5.93;85.99;103444.41;10501575;28;20068;-84
2022/01/22 22:42:56;;;;;;;18.23;9.85;;;;;;;6.07;85.00;103448.19;10468073;28;20079;-84
2022/01/22 22:47:58;;;;;;;16.75;9.70;;;;;;;6.23;84.13;103454.59;10472252;28;20136;-84
2022/01/22 22:53:00;;;;;;;17.58;9.23;;;;;;;6.22;84.75;103453.69;10487553;28;20068;-83
2022/01/22 22:58:02;;;;;;;16.02;8.77;;;;;;;6.01;85.35;103455.34;10495543;28;20127;-84
2022/01/22 23:03:04;;;;;;;19.70;8.77;;;;;;;5.91;85.65;103456.19;10501966;28;20045;-83
2022/01/22 23:08:06;;;;;;;19.90;10.00;;;;;;;5.85;86.08;103447.94;10483052;28;20467;-83
2022/01/22 23:13:12;;;;;;;21.90;10.23;;;;;;;5.79;85.70;103462.78;10499584;28;20055;-83
2022/01/22 23:28:42;;;;;;;21.35;11.00;;;;;;;5.69;86.35;103458.53;10507885;28;20052;-83
2022/01/22 23:33:54;;;;;;;24.70;11.40;;;;;;;5.86;86.41;103452.31;10491172;28;20095;-84
2022/01/22 23:54:59;;;;;;;24.33;11.55;;;;;;;5.78;85.79;103463.53;10529468;28;20076;-83
